Time;durP1;ratioP1;P1;durP2;ratioP2;P2;SDS_P1;SDS_P2;PMS_P1;PMS_P2;Temp;Humidity;BMP_temperature;BMP_pressure;BME280_temperature;BME280_humidity;BME280_pressure;Samples;Min_cycle;Max_cycle;Signal;HPM_P1;HPM_P2
2022/12/24 00:01:03;;;;;;;42.38;21.85;;;;;;;;;;5033351;28;20496;-77
2022/12/24 00:03:29;;;;;;;41.90;23.23;;;;;;;;;;5018823;28;20021;-78
2022/12/24 00:05:54;;;;;;;42.75;23.55;;;;;;;;;;5047584;28;20087;-77
2022/12/24 00:08:20;;;;;;;40.95;22.15;;;;;;;;;;5033139;28;20036;-77
2022/12/24 00:10:48;;;;;;;38.47;22.25;;;;;;;;;;5016712;28;20036;-77
2022/12/24 00:13:13;;;;;;;37.92;22.25;;;;;;;;;;5032586;28;20488;-77
2022/12/24 00:15:39;;;;;;;35.22;20.42;;;;;;;;;;5027929;28;20061;-77
2022/12/24 00:20:48;;;;;;;39.50;21.30;;;;;;;;;;5045455;28;20044;-77
2022/12/24 00:25:58;;;;;;;33.58;18.80;;;;;;;;;;5055651;28;20391;-77
2022/12/24 00:28:23;;;;;;;36.58;21.30;;;;;;;;;;5051496;28;20028;-77
2022/12/24 00:30:49;;;;;;;34.25;21.65;;;;;;;;;;5056255;28;20036;-77
2022/12/24 00:33:14;;;;;;;38.42;21.58;;;;;;;;;;5055657;28;20032;-76
2022/12/24 00:35:40;;;;;;;39.60;20.80;;;;;;;;;;5029922;28;20117;-76
2022/12/24 00:38:05;;;;;;;41.70;22.13;;;;;;;;;;5054193;28;20567;-77
2022/12/24 00:40:31;;;;;;;37.05;20.80;;;;;;;;;;5036448;28;20040;-76
2022/12/24 00:42:56;;;;;;;35.63;20.25;;;;;;;;;;5020793;28;20043;-77
2022/12/24 00:45:22;;;;;;;38.17;20.92;;;;;;;;;;5038052;28;20047;-76
2022/12/24 00:47:47;;;;;;;33.75;20.08;;;;;;;;;;5037051;28;20700;-76
2022/12/24 00:50:13;;;;;;;42.25;21.33;;;;;;;;;;5036610;28;20119;-76
2022/12/24 00:52:38;;;;;;;37.38;19.90;;;;;;;;;;5054207;28;20033;-77
2022/12/24 00:55:04;;;;;;;42.58;20.92;;;;;;;;;;5019474;28;20483;-76
2022/12/24 00:57:29;;;;;;;44.80;20.85;;;;;;;;;;5055593;28;20036;-77
2022/12/24 00:59:55;;;;;;;37.45;18.40;;;;;;;;;;5054732;28;20378;-77
2022/12/24 01:05:10;;;;;;;40.08;20.70;;;;;;;;;;5037131;28;20804;-77
2022/12/24 01:07:36;;;;;;;38.45;20.63;;;;;;;;;;5035941;28;20068;-78
2022/12/24 01:12:46;;;;;;;34.67;18.95;;;;;;;;;;5042366;28;20549;-77
2022/12/24 01:15:12;;;;;;;37.15;20.42;;;;;;;;;;5036908;28;20124;-77
2022/12/24 01:17:38;;;;;;;34.50;19.40;;;;;;;;;;5035771;28;20072;-77
2022/12/24 01:22:48;;;;;;;36.50;20.45;;;;;;;;;;5055064;28;20037;-77
2022/12/24 01:25:13;;;;;;;34.25;19.88;;;;;;;;;;5021483;28;20031;-77
2022/12/24 01:27:39;;;;;;;37.38;20.45;;;;;;;;;;5038015;28;20480;-77
2022/12/24 01:30:05;;;;;;;35.53;19.67;;;;;;;;;;5036699;28;20035;-77
2022/12/24 01:32:31;;;;;;;35.40;20.08;;;;;;;;;;5035923;28;20106;-77
2022/12/24 01:34:56;;;;;;;40.17;20.33;;;;;;;;;;5053995;28;20037;-77
2022/12/24 01:37:22;;;;;;;34.13;20.45;;;;;;;;;;5019425;28;20037;-77
2022/12/24 01:39:47;;;;;;;35.03;19.17;;;;;;;;;;5053574;28;20078;-76
2022/12/24 01:45:21;;;;;;;41.35;20.80;;;;;;;;;;5053880;28;20037;-75
2022/12/24 01:47:47;;;;;;;36.40;19.85;;;;;;;;;;5038317;28;20036;-76
2022/12/24 01:50:14;;;;;;;32.38;19.20;;;;;;;;;;5041207;28;20052;-77
2022/12/24 01:52:39;;;;;;;36.25;20.85;;;;;;;;;;5022262;28;20037;-76
2022/12/24 01:55:06;;;;;;;41.15;21.83;;;;;;;;;;5037955;28;20120;-76
2022/12/24 01:57:41;;;;;;;32.38;18.65;;;;;;;;;;5025953;28;20415;-76
2022/12/24 02:00:09;;;;;;;32.42;19.48;;;;;;;;;;5051759;28;20574;-76
2022/12/24 02:02:34;;;;;;;34.38;20.08;;;;;;;;;;5024585;28;20032;-77
2022/12/24 02:05:03;;;;;;;32.75;19.35;;;;;;;;;;5041539;28;20032;-77
2022/12/24 02:10:13;;;;;;;39.05;20.50;;;;;;;;;;5047804;28;20082;-76
2022/12/24 02:12:38;;;;;;;33.17;19.45;;;;;;;;;;5018562;28;20056;-78
2022/12/24 02:15:06;;;;;;;40.85;20.27;;;;;;;;;;5017338;28;20114;-77
2022/12/24 02:17:34;;;;;;;40.00;20.88;;;;;;;;;;5032150;28;20049;-77
2022/12/24 02:20:03;;;;;;;37.25;19.95;;;;;;;;;;5029098;28;20051;-77
2022/12/24 02:22:41;;;;;;;32.72;18.17;;;;;;;;;;5055666;28;20098;-77
2022/12/24 02:25:12;;;;;;;42.35;21.67;;;;;;;;;;5064903;28;20029;-77
2022/12/24 02:27:44;;;;;;;39.20;21.48;;;;;;;;;;5045423;28;20032;-77
2022/12/24 02:30:14;;;;;;;39.83;20.13;;;;;;;;;;5048346;28;20032;-77
2022/12/24 02:32:45;;;;;;;37.10;20.27;;;;;;;;;;5031506;28;20372;-76
2022/12/24 02:35:13;;;;;;;36.85;20.25;;;;;;;;;;5061873;28;20526;-77
2022/12/24 02:37:46;;;;;;;39.50;20.73;;;;;;;;;;5046603;28;20032;-76
2022/12/24 02:40:12;;;;;;;32.90;18.75;;;;;;;;;;5044022;28;20032;-76
2022/12/24 02:42:41;;;;;;;34.13;18.98;;;;;;;;;;5048742;28;20058;-76
2022/12/24 02:45:10;;;;;;;37.97;21.30;;;;;;;;;;5020107;28;20519;-76
2022/12/24 02:47:35;;;;;;;38.10;20.85;;;;;;;;;;5031682;28;20025;-76
2022/12/24 02:50:01;;;;;;;35.72;21.35;;;;;;;;;;5044363;28;20404;-75
2022/12/24 02:52:30;;;;;;;37.22;21.17;;;;;;;;;;5067290;28;20036;-77
2022/12/24 02:54:56;;;;;;;40.50;22.55;;;;;;;;;;5044395;28;20041;-77
2022/12/24 02:57:26;;;;;;;38.13;20.52;;;;;;;;;;5042161;28;20035;-78
2022/12/24 02:59:52;;;;;;;39.38;21.20;;;;;;;;;;5045083;28;20799;-77
2022/12/24 03:05:10;;;;;;;39.45;21.33;;;;;;;;;;5051059;28;20032;-77
2022/12/24 03:07:37;;;;;;;36.30;19.50;;;;;;;;;;5051820;28;20111;-77
2022/12/24 03:10:06;;;;;;;45.38;21.27;;;;;;;;;;5034397;28;20037;-77
2022/12/24 03:12:33;;;;;;;39.42;20.92;;;;;;;;;;5027717;28;20387;-75
2022/12/24 03:14:59;;;;;;;47.40;22.45;;;;;;;;;;5057305;28;20040;-76
2022/12/24 03:17:24;;;;;;;50.28;21.17;;;;;;;;;;5066440;28;20093;-77
2022/12/24 03:19:50;;;;;;;40.50;20.95;;;;;;;;;;5041288;28;20033;-79
2022/12/24 03:22:15;;;;;;;50.45;21.75;;;;;;;;;;5055820;28;20029;-78
2022/12/24 03:24:41;;;;;;;49.33;22.52;;;;;;;;;;5041745;28;20365;-77
2022/12/24 03:27:07;;;;;;;46.08;21.98;;;;;;;;;;5063481;28;20168;-76
2022/12/24 03:35:01;;;;;;;55.50;23.35;;;;;;;;;;5040856;28;20408;-77
2022/12/24 03:37:26;;;;;;;40.10;20.13;;;;;;;;;;5041047;28;20042;-78
2022/12/24 03:42:35;;;;;;;42.00;20.60;;;;;;;;;;5059950;28;20028;-77
2022/12/24 03:45:01;;;;;;;42.78;22.13;;;;;;;;;;5056094;28;20804;-78
2022/12/24 03:47:26;;;;;;;37.42;20.10;;;;;;;;;;5059650;28;20104;-77
2022/12/24 03:49:52;;;;;;;39.28;19.73;;;;;;;;;;5055383;28;20492;-76
2022/12/24 03:52:17;;;;;;;40.95;20.75;;;;;;;;;;5042428;28;20040;-78
2022/12/24 03:54:43;;;;;;;35.50;20.63;;;;;;;;;;5033284;28;20032;-76
2022/12/24 03:57:08;;;;;;;31.15;17.98;;;;;;;;;;5060405;28;20024;-76
2022/12/24 04:02:18;;;;;;;34.33;18.40;;;;;;;;;;5020113;28;20119;-77
2022/12/24 04:04:43;;;;;;;29.58;16.80;;;;;;;;;;5041444;28;20476;-77
2022/12/24 04:07:09;;;;;;;29.38;16.52;;;;;;;;;;5033554;28;20504;-77
2022/12/24 04:09:34;;;;;;;25.55;15.55;;;;;;;;;;5033269;28;20468;-77
2022/12/24 04:11:59;;;;;;;24.85;14.38;;;;;;;;;;5033675;28;20081;-77
2022/12/24 04:17:09;;;;;;;25.02;15.30;;;;;;;;;;5050944;28;20094;-77
2022/12/24 04:19:35;;;;;;;24.92;14.90;;;;;;;;;;5035208;28;20036;-77
2022/12/24 04:22:00;;;;;;;21.42;14.23;;;;;;;;;;5060842;28;20073;-77
2022/12/24 04:24:25;;;;;;;22.27;14.07;;;;;;;;;;5032133;28;20017;-77
2022/12/24 04:26:51;;;;;;;26.13;15.70;;;;;;;;;;5033483;28;20037;-77
2022/12/24 04:29:16;;;;;;;24.35;15.20;;;;;;;;;;5051151;28;20031;-77
2022/12/24 04:31:42;;;;;;;23.65;14.40;;;;;;;;;;5050901;28;20075;-79
2022/12/24 04:34:07;;;;;;;21.75;13.70;;;;;;;;;;5033362;28;20043;-77
2022/12/24 04:39:17;;;;;;;24.60;15.18;;;;;;;;;;5050851;28;20064;-77
2022/12/24 04:41:43;;;;;;;23.70;14.85;;;;;;;;;;5050644;28;20096;-78
2022/12/24 04:46:52;;;;;;;26.58;13.82;;;;;;;;;;5016317;28;20037;-77
2022/12/24 04:49:17;;;;;;;23.60;14.05;;;;;;;;;;5023830;28;20021;-77
2022/12/24 04:51:43;;;;;;;23.48;14.23;;;;;;;;;;5024267;28;20111;-78
2022/12/24 04:54:08;;;;;;;25.92;15.10;;;;;;;;;;5051133;28;20033;-77
2022/12/24 04:56:34;;;;;;;24.73;14.93;;;;;;;;;;5042915;28;20040;-77
2022/12/24 04:58:59;;;;;;;24.45;13.80;;;;;;;;;;5041837;28;20037;-78
2022/12/24 05:01:26;;;;;;;24.08;14.25;;;;;;;;;;5027261;28;20091;-77
2022/12/24 05:03:51;;;;;;;20.80;13.88;;;;;;;;;;5029266;28;20472;-78
2022/12/24 05:06:18;;;;;;;24.08;14.93;;;;;;;;;;5019382;28;20103;-78
2022/12/24 05:11:27;;;;;;;25.55;15.18;;;;;;;;;;5044145;28;20039;-78
2022/12/24 05:13:53;;;;;;;27.77;15.63;;;;;;;;;;5031997;28;20029;-78
2022/12/24 05:26:20;;;;;;;31.17;17.13;;;;;;;;;;5043661;28;20033;-78
2022/12/24 05:27:16;;;;;;;32.88;18.77;;;;;;;;;;5053699;28;20044;-77
2022/12/24 05:29:42;;;;;;;35.40;19.05;;;;;;;;;;5055003;28;20016;-78
2022/12/24 05:32:07;;;;;;;31.85;16.90;;;;;;;;;;5053747;28;20028;-80
2022/12/24 05:34:32;;;;;;;33.53;18.55;;;;;;;;;;5053051;28;20032;-77
2022/12/24 05:36:58;;;;;;;31.27;17.50;;;;;;;;;;5053926;28;20519;-78
2022/12/24 05:39:24;;;;;;;30.73;17.25;;;;;;;;;;5053577;28;20029;-77
2022/12/24 05:44:33;;;;;;;33.67;18.13;;;;;;;;;;5038594;28;20041;-78
2022/12/24 05:46:59;;;;;;;31.90;17.77;;;;;;;;;;5053330;28;20024;-77
2022/12/24 05:52:08;;;;;;;34.85;19.45;;;;;;;;;;5021745;28;20044;-79
2022/12/24 05:54:34;;;;;;;38.22;20.50;;;;;;;;;;5053317;28;20029;-77
2022/12/24 05:56:59;;;;;;;37.67;19.05;;;;;;;;;;5055731;28;20024;-78
2022/12/24 05:59:25;;;;;;;34.83;18.65;;;;;;;;;;5065517;28;20059;-78
2022/12/24 06:01:50;;;;;;;38.63;20.85;;;;;;;;;;5063557;28;20093;-77
2022/12/24 06:04:16;;;;;;;40.05;20.60;;;;;;;;;;5066760;28;20470;-78
2022/12/24 06:06:41;;;;;;;42.72;20.70;;;;;;;;;;5048995;28;20024;-77
2022/12/24 06:09:07;;;;;;;43.47;21.80;;;;;;;;;;5069555;28;20097;-78
2022/12/24 06:14:16;;;;;;;45.25;22.13;;;;;;;;;;5057438;28;20036;-76
2022/12/24 06:16:42;;;;;;;43.47;20.05;;;;;;;;;;5054806;28;20388;-78
2022/12/24 06:19:07;;;;;;;43.50;21.30;;;;;;;;;;5064789;28;20344;-78
2022/12/24 06:21:33;;;;;;;45.67;20.85;;;;;;;;;;5067333;28;20027;-78
2022/12/24 06:23:58;;;;;;;52.63;23.27;;;;;;;;;;5067469;28;20032;-76
2022/12/24 06:26:24;;;;;;;46.90;22.45;;;;;;;;;;5054100;28;20025;-78
2022/12/24 06:28:49;;;;;;;43.65;20.48;;;;;;;;;;5054866;28;20031;-79
2022/12/24 06:31:16;;;;;;;45.50;21.25;;;;;;;;;;5056664;28;20032;-77
2022/12/24 06:33:41;;;;;;;44.30;22.52;;;;;;;;;;5022238;28;20099;-76
2022/12/24 06:39:00;;;;;;;47.20;22.05;;;;;;;;;;5055805;28;20170;-76
2022/12/24 06:41:26;;;;;;;44.78;21.25;;;;;;;;;;5039302;28;20566;-77
2022/12/24 06:43:51;;;;;;;40.55;21.58;;;;;;;;;;5041764;28;20480;-76
2022/12/24 06:46:17;;;;;;;44.90;21.73;;;;;;;;;;5038482;28;20163;-78
2022/12/24 06:48:43;;;;;;;45.75;22.15;;;;;;;;;;5061201;28;20506;-78
2022/12/24 06:51:08;;;;;;;;;;;;;;;;;;5044999;28;20033;-76
2022/12/24 06:53:34;;;;;;;49.47;23.35;;;;;;;;;;5060887;28;19923;-77
2022/12/24 06:56:00;;;;;;;42.63;22.40;;;;;;;;;;5062904;28;20404;-80
2022/12/24 06:58:26;;;;;;;44.50;21.70;;;;;;;;;;5041487;28;20028;-78
2022/12/24 07:00:51;;;;;;;43.38;20.98;;;;;;;;;;5039365;28;20107;-78
2022/12/24 07:03:16;;;;;;;43.45;22.27;;;;;;;;;;5060716;28;20043;-78
2022/12/24 07:11:10;;;;;;;38.20;19.52;;;;;;;;;;5055498;28;20036;-77
2022/12/24 07:13:35;;;;;;;43.67;20.65;;;;;;;;;;5050512;28;20025;-76
2022/12/24 07:16:01;;;;;;;42.03;21.10;;;;;;;;;;5050368;28;20096;-76
2022/12/24 07:18:27;;;;;;;56.53;29.98;;;;;;;;;;5035656;28;20029;-78
2022/12/24 07:20:52;;;;;;;57.58;29.58;;;;;;;;;;5052102;28;20427;-78
2022/12/24 07:23:18;;;;;;;52.58;29.55;;;;;;;;;;5056796;28;20024;-77
2022/12/24 07:25:44;;;;;;;53.40;28.55;;;;;;;;;;5053711;28;20077;-77
2022/12/24 07:28:09;;;;;;;;;;;;;;;;;;5038865;28;20047;-78
2022/12/24 07:30:35;;;;;;;57.45;29.80;;;;;;;;;;5058152;28;19955;-78
2022/12/24 07:33:00;;;;;;;54.53;29.13;;;;;;;;;;5058752;28;20583;-77
2022/12/24 07:35:26;;;;;;;57.25;32.05;;;;;;;;;;5044565;28;20176;-78
2022/12/24 07:37:51;;;;;;;54.47;31.00;;;;;;;;;;5057839;28;20404;-77
2022/12/24 07:40:17;;;;;;;54.47;31.67;;;;;;;;;;5021656;28;20066;-79
2022/12/24 07:42:42;;;;;;;56.30;31.75;;;;;;;;;;5053509;28;20036;-78
2022/12/24 07:45:08;;;;;;;55.88;31.10;;;;;;;;;;5062966;28;20062;-79
2022/12/24 07:47:34;;;;;;;53.38;30.50;;;;;;;;;;5030573;28;20036;-78
2022/12/24 07:49:59;;;;;;;56.70;31.98;;;;;;;;;;5063880;28;20037;-77
2022/12/24 07:52:25;;;;;;;51.05;27.92;;;;;;;;;;5063312;28;20029;-77
2022/12/24 07:54:50;;;;;;;46.15;26.33;;;;;;;;;;5063946;28;20507;-79
2022/12/24 07:57:16;;;;;;;51.40;29.08;;;;;;;;;;5066388;28;20062;-78
2022/12/24 07:59:41;;;;;;;51.05;30.02;;;;;;;;;;5062280;28;20037;-78
2022/12/24 08:02:08;;;;;;;50.75;27.92;;;;;;;;;;5044073;28;20070;-79
2022/12/24 08:04:35;;;;;;;51.03;32.45;;;;;;;;;;5044819;28;20056;-78
2022/12/24 08:07:02;;;;;;;59.33;31.42;;;;;;;;;;5061215;28;20513;-78
2022/12/24 08:09:29;;;;;;;52.58;29.88;;;;;;;;;;5047466;28;20107;-79
2022/12/24 08:11:55;;;;;;;50.88;29.30;;;;;;;;;;5035188;28;20021;-79
2022/12/24 08:14:20;;;;;;;56.20;29.88;;;;;;;;;;5063022;28;20040;-79
2022/12/24 08:19:30;;;;;;;43.53;22.65;;;;;;;;;;5050783;28;20043;-79
2022/12/24 08:21:55;;;;;;;38.58;20.77;;;;;;;;;;5051331;28;20492;-79
2022/12/24 08:24:21;;;;;;;39.28;20.92;;;;;;;;;;5043495;28;20454;-79
2022/12/24 08:26:46;;;;;;;38.70;19.25;;;;;;;;;;5053689;28;20024;-79
2022/12/24 08:29:12;;;;;;;34.00;18.80;;;;;;;;;;5062554;28;20081;-78
2022/12/24 08:31:37;;;;;;;39.80;20.75;;;;;;;;;;5050929;28;20032;-80
2022/12/24 08:34:03;;;;;;;36.95;20.08;;;;;;;;;;5032093;28;20124;-78
2022/12/24 08:36:29;;;;;;;33.85;18.52;;;;;;;;;;5056899;28;20074;-79
2022/12/24 08:38:54;;;;;;;37.55;18.80;;;;;;;;;;5048841;28;20036;-79
2022/12/24 08:44:04;;;;;;;31.52;17.25;;;;;;;;;;5036078;28;20041;-78
2022/12/24 08:46:30;;;;;;;28.83;16.52;;;;;;;;;;5016358;28;20020;-80
2022/12/24 08:48:55;;;;;;;34.30;18.58;;;;;;;;;;5050645;28;20443;-79
2022/12/24 08:51:21;;;;;;;30.40;17.45;;;;;;;;;;5052738;28;20086;-78
2022/12/24 08:53:47;;;;;;;32.40;17.08;;;;;;;;;;5035616;28;20048;-78
2022/12/24 08:56:12;;;;;;;33.40;18.73;;;;;;;;;;5054214;28;20029;-79
2022/12/24 08:58:38;;;;;;;29.50;16.20;;;;;;;;;;5040149;28;20506;-81
2022/12/24 09:01:10;;;;;;;34.30;19.83;;;;;;;;;;5036739;28;20025;-78
2022/12/24 09:03:36;;;;;;;40.25;21.02;;;;;;;;;;5054053;28;20487;-79
2022/12/24 09:06:02;;;;;;;37.75;21.33;;;;;;;;;;5052202;28;20031;-79
2022/12/24 09:08:28;;;;;;;;;;;;;;;;;;5056671;28;20440;-78
2022/12/24 09:10:53;;;;;;;42.60;22.77;;;;;;;;;;5048167;28;19981;-79
2022/12/24 09:13:18;;;;;;;45.05;24.65;;;;;;;;;;5062557;28;20063;-79
2022/12/24 09:15:51;;;;;;;43.70;24.67;;;;;;;;;;5068646;28;20160;-78
2022/12/24 09:18:16;;;;;;;42.38;23.02;;;;;;;;;;5046512;28;20048;-78
2022/12/24 09:20:42;;;;;;;50.40;25.73;;;;;;;;;;5064942;28;20045;-78
2022/12/24 09:23:07;;;;;;;44.38;24.08;;;;;;;;;;5065051;28;20040;-79
2022/12/24 09:25:33;;;;;;;51.17;24.77;;;;;;;;;;5068217;28;20111;-78
2022/12/24 09:27:58;;;;;;;46.88;23.90;;;;;;;;;;5067520;28;20040;-79
2022/12/24 09:30:24;;;;;;;53.83;26.33;;;;;;;;;;5025971;28;20037;-79
2022/12/24 09:32:50;;;;;;;47.55;24.55;;;;;;;;;;5036788;28;20041;-77
2022/12/24 09:35:15;;;;;;;45.10;22.33;;;;;;;;;;5035695;28;20040;-78
2022/12/24 09:37:41;;;;;;;51.03;25.02;;;;;;;;;;5055341;28;20075;-81
2022/12/24 09:42:56;;;;;;;53.22;25.45;;;;;;;;;;5041997;28;20031;-81
2022/12/24 09:45:28;;;;;;;56.38;27.67;;;;;;;;;;5063236;28;20466;-80
2022/12/24 09:47:58;;;;;;;52.10;25.88;;;;;;;;;;5059383;28;20102;-82
2022/12/24 09:50:45;;;;;;;50.42;23.77;;;;;;;;;;5065263;28;20036;-82
2022/12/24 09:53:30;;;;;;;54.65;27.48;;;;;;;;;;5040246;28;20063;-81
2022/12/24 09:55:57;;;;;;;50.72;25.35;;;;;;;;;;5026211;28;20048;-82
2022/12/24 09:58:22;;;;;;;;;;;;;;;;;;5042967;28;20032;-80
2022/12/24 10:00:48;;;;;;;66.22;35.67;;;;;;;;;;5066145;28;19920;-81
2022/12/24 10:03:13;;;;;;;74.57;36.35;;;;;;;;;;5048661;28;20116;-79
2022/12/24 10:05:40;;;;;;;71.00;34.85;;;;;;;;;;5054653;28;20571;-81
2022/12/24 10:10:59;;;;;;;85.30;39.85;;;;;;;;;;5053705;28;20028;-80
2022/12/24 10:16:21;;;;;;;76.40;30.85;;;;;;;;;;5057595;28;20056;-81
2022/12/24 10:18:52;;;;;;;68.43;29.77;;;;;;;;;;5025894;28;20034;-80
2022/12/24 10:21:38;;;;;;;65.75;30.77;;;;;;;;;;5045876;28;20061;-79
2022/12/24 10:24:06;;;;;;;68.85;29.33;;;;;;;;;;5050490;28;20094;-80
2022/12/24 10:26:51;;;;;;;60.60;27.67;;;;;;;;;;5051630;28;20039;-79
2022/12/24 10:29:17;;;;;;;63.15;29.27;;;;;;;;;;5046326;28;20032;-80
2022/12/24 10:34:49;;;;;;;66.20;28.23;;;;;;;;;;5047944;28;20119;-82
2022/12/24 10:37:24;;;;;;;59.13;28.83;;;;;;;;;;5054206;28;20060;-80
2022/12/24 10:39:50;;;;;;;63.65;29.02;;;;;;;;;;5040660;28;20492;-81
2022/12/24 10:42:15;;;;;;;65.35;30.23;;;;;;;;;;5065884;28;20089;-79
2022/12/24 10:44:41;;;;;;;58.83;27.73;;;;;;;;;;5060944;28;20045;-78
2022/12/24 10:47:07;;;;;;;58.08;27.20;;;;;;;;;;5062462;28;20023;-80
2022/12/24 10:49:37;;;;;;;56.00;27.35;;;;;;;;;;5040853;28;20037;-80
2022/12/24 10:52:05;;;;;;;58.03;29.33;;;;;;;;;;5044589;28;20438;-80
2022/12/24 10:54:38;;;;;;;;;;;;;;;;;;5049990;28;20069;-80
2022/12/24 10:57:03;;;;;;;47.58;24.38;;;;;;;;;;5062093;28;19956;-80
2022/12/24 10:59:30;;;;;;;45.45;24.95;;;;;;;;;;5064510;28;20055;-81
2022/12/24 11:01:56;;;;;;;48.25;24.23;;;;;;;;;;5050824;28;20032;-80
2022/12/24 11:04:22;;;;;;;47.63;23.23;;;;;;;;;;5060013;28;20103;-80
2022/12/24 11:06:56;;;;;;;48.38;24.13;;;;;;;;;;5044667;28;20044;-81
2022/12/24 11:09:24;;;;;;;40.33;22.23;;;;;;;;;;5042060;28;20091;-77
2022/12/24 11:11:49;;;;;;;45.13;22.92;;;;;;;;;;5033570;28;20043;-80
2022/12/24 11:14:15;;;;;;;40.70;22.33;;;;;;;;;;5053810;28;20029;-80
2022/12/24 11:16:45;;;;;;;45.08;23.40;;;;;;;;;;5034969;28;20152;-80
2022/12/24 11:19:14;;;;;;;42.72;23.10;;;;;;;;;;5033770;28;20043;-80
2022/12/24 11:21:40;;;;;;;46.58;23.23;;;;;;;;;;5035037;28;20108;-80
2022/12/24 11:24:12;;;;;;;41.78;22.55;;;;;;;;;;5034943;28;20179;-80
2022/12/24 11:26:38;;;;;;;43.30;23.50;;;;;;;;;;5052332;28;20031;-80
2022/12/24 11:29:33;;;;;;;42.30;22.38;;;;;;;;;;5050591;28;20021;-78
2022/12/24 11:32:20;;;;;;;44.25;23.33;;;;;;;;;;5011991;28;20041;-80
2022/12/24 11:34:45;;;;;;;;;;;;;;;;;;5036891;28;20032;-78
2022/12/24 11:37:14;;;;;;;38.67;20.17;;;;;;;;;;5050608;28;19909;-80
2022/12/24 11:39:40;;;;;;;36.30;20.17;;;;;;;;;;5050435;28;20036;-79
2022/12/24 11:42:06;;;;;;;37.10;20.75;;;;;;;;;;5033124;28;20086;-79
2022/12/24 11:44:31;;;;;;;34.80;18.95;;;;;;;;;;5032939;28;20047;-80
2022/12/24 11:46:57;;;;;;;40.67;20.63;;;;;;;;;;5032316;28;20102;-78
2022/12/24 11:49:26;;;;;;;33.78;19.75;;;;;;;;;;5037047;28;20029;-81
2022/12/24 11:52:10;;;;;;;36.22;20.23;;;;;;;;;;5037978;28;20644;-80
2022/12/24 11:54:55;;;;;;;38.67;20.50;;;;;;;;;;5040018;28;20485;-79
2022/12/24 11:57:21;;;;;;;40.50;21.40;;;;;;;;;;5050320;28;20217;-80
2022/12/24 11:59:46;;;;;;;;;;;;;;;;;;5051731;28;20020;-79
2022/12/24 12:02:12;;;;;;;41.80;21.30;;;;;;;;;;5033131;28;19912;-79
2022/12/24 12:04:37;;;;;;;41.05;20.70;;;;;;;;;;5032238;28;20024;-79
2022/12/24 12:07:10;;;;;;;37.03;20.60;;;;;;;;;;5032549;28;20414;-79
2022/12/24 12:09:37;;;;;;;37.80;20.15;;;;;;;;;;5032930;28;20032;-78
2022/12/24 12:12:11;;;;;;;38.25;20.50;;;;;;;;;;5013230;28;20071;-80
2022/12/24 12:14:38;;;;;;;37.65;20.08;;;;;;;;;;5019255;28;20037;-80
2022/12/24 12:17:18;;;;;;;38.90;20.45;;;;;;;;;;5044236;28;20053;-80
2022/12/24 12:19:45;;;;;;;35.45;20.27;;;;;;;;;;5032933;28;20068;-79
2022/12/24 12:22:17;;;;;;;33.70;18.88;;;;;;;;;;5033360;28;20033;-79
2022/12/24 12:24:43;;;;;;;32.85;18.30;;;;;;;;;;5034439;28;20025;-78
2022/12/24 12:27:09;;;;;;;;;;;;;;;;;;5037543;28;20428;-79
2022/12/24 12:29:35;;;;;;;31.30;18.30;;;;;;;;;;5055030;28;20039;-79
2022/12/24 12:32:05;;;;;;;33.33;17.25;;;;;;;;;;5040739;28;20224;-79
2022/12/24 12:34:36;;;;;;;29.67;17.35;;;;;;;;;;5043608;28;20079;-80
2022/12/24 12:37:12;;;;;;;33.38;18.35;;;;;;;;;;5058060;28;20028;-79
2022/12/24 12:39:38;;;;;;;28.35;17.30;;;;;;;;;;5037499;28;20491;-80
2022/12/24 12:42:12;;;;;;;29.10;17.25;;;;;;;;;;5023037;28;20047;-80
2022/12/24 12:44:40;;;;;;;27.83;16.50;;;;;;;;;;5059392;28;20423;-80
2022/12/24 12:47:17;;;;;;;26.80;16.70;;;;;;;;;;5060692;28;20094;-81
2022/12/24 12:50:02;;;;;;;28.02;17.00;;;;;;;;;;5058207;28;20025;-79
2022/12/24 12:52:27;;;;;;;28.63;15.93;;;;;;;;;;5054129;28;20033;-80
2022/12/24 12:54:52;;;;;;;25.73;15.85;;;;;;;;;;5059280;28;20745;-81
2022/12/24 12:57:18;;;;;;;26.70;16.27;;;;;;;;;;5071935;28;20411;-80
2022/12/24 12:59:59;;;;;;;26.58;16.40;;;;;;;;;;5040686;28;20565;-80
2022/12/24 13:02:44;;;;;;;27.70;16.55;;;;;;;;;;5037595;28;20056;-79
2022/12/24 13:05:15;;;;;;;29.05;16.58;;;;;;;;;;5043991;28;20047;-80
2022/12/24 13:07:52;;;;;;;26.63;16.08;;;;;;;;;;5060493;28;20044;-80
2022/12/24 13:10:42;;;;;;;27.35;15.63;;;;;;;;;;5064714;28;20399;-79
2022/12/24 13:13:26;;;;;;;27.30;15.73;;;;;;;;;;5024410;28;20036;-81
2022/12/24 13:15:58;;;;;;;24.80;15.70;;;;;;;;;;5053951;28;20045;-79
2022/12/24 13:21:10;;;;;;;;;;;;;;;;;;5049693;28;20708;-77
2022/12/24 13:23:36;;;;;;;26.95;16.02;;;;;;;;;;5054367;28;19909;-80
2022/12/24 13:26:01;;;;;;;29.05;16.27;;;;;;;;;;5054922;28;20038;-80
2022/12/24 13:31:18;;;;;;;25.35;15.60;;;;;;;;;;5055460;28;20415;-79
2022/12/24 13:36:47;;;;;;;24.05;15.50;;;;;;;;;;5054280;28;20048;-79
2022/12/24 13:39:19;;;;;;;28.80;16.92;;;;;;;;;;5057928;28;20070;-79
2022/12/24 13:41:51;;;;;;;28.30;16.55;;;;;;;;;;5047570;28;20028;-79
2022/12/24 13:47:03;;;;;;;26.23;15.75;;;;;;;;;;5052096;28;20033;-81
2022/12/24 13:49:29;;;;;;;25.40;16.45;;;;;;;;;;5061890;28;20017;-79
2022/12/24 13:52:07;;;;;;;26.05;15.50;;;;;;;;;;5042386;28;20040;-80
2022/12/24 13:54:33;;;;;;;25.88;15.93;;;;;;;;;;5053443;28;20439;-80
2022/12/24 13:56:59;;;;;;;23.65;15.30;;;;;;;;;;5052696;28;20033;-80
2022/12/24 13:59:34;;;;;;;25.20;15.50;;;;;;;;;;5034967;28;20045;-79
2022/12/24 14:02:00;;;;;;;26.02;16.77;;;;;;;;;;5053561;28;20045;-80
2022/12/24 14:04:30;;;;;;;24.80;14.90;;;;;;;;;;5065452;28;20020;-79
2022/12/24 14:06:56;;;;;;;24.65;15.55;;;;;;;;;;5050773;28;20048;-79
2022/12/24 14:09:23;;;;;;;24.27;15.25;;;;;;;;;;5039138;28;20021;-80
2022/12/24 14:11:52;;;;;;;24.38;15.38;;;;;;;;;;5071467;28;20029;-78
2022/12/24 14:14:27;;;;;;;23.60;15.43;;;;;;;;;;5058700;28;20025;-79
2022/12/24 14:16:54;;;;;;;22.77;15.10;;;;;;;;;;5034968;28;20056;-79
2022/12/24 14:19:19;;;;;;;;;;;;;;;;;;5037199;28;20068;-78
2022/12/24 14:21:52;;;;;;;24.17;14.85;;;;;;;;;;5036313;28;19955;-78
2022/12/24 14:24:25;;;;;;;22.33;14.48;;;;;;;;;;5038261;28;20056;-79
2022/12/24 14:26:55;;;;;;;22.00;14.73;;;;;;;;;;5037460;28;20435;-79
2022/12/24 14:29:24;;;;;;;21.88;14.65;;;;;;;;;;5039595;28;20089;-78
2022/12/24 14:31:50;;;;;;;23.60;14.60;;;;;;;;;;5037281;28;20079;-79
2022/12/24 14:34:16;;;;;;;23.23;14.57;;;;;;;;;;5039607;28;20036;-79
2022/12/24 14:36:41;;;;;;;23.25;15.52;;;;;;;;;;5054774;28;20024;-79
2022/12/24 14:39:07;;;;;;;19.70;13.60;;;;;;;;;;5048747;28;20487;-78
2022/12/24 14:41:46;;;;;;;20.33;13.77;;;;;;;;;;5036345;28;20082;-80
2022/12/24 14:44:15;;;;;;;21.00;14.52;;;;;;;;;;5037723;28;20040;-79
2022/12/24 14:46:46;;;;;;;18.55;13.18;;;;;;;;;;5032629;28;20021;-80
2022/12/24 14:49:15;;;;;;;20.27;13.73;;;;;;;;;;5069560;28;20032;-80
2022/12/24 14:51:59;;;;;;;19.17;13.88;;;;;;;;;;5041115;28;20048;-79
2022/12/24 14:54:24;;;;;;;20.38;13.57;;;;;;;;;;5036822;28;20041;-81
2022/12/24 14:59:56;;;;;;;19.70;13.00;;;;;;;;;;5046168;28;20051;-81
2022/12/24 15:02:22;;;;;;;18.85;13.18;;;;;;;;;;5061902;28;20491;-79
2022/12/24 15:08:01;;;;;;;23.13;13.52;;;;;;;;;;5059787;28;20427;-79
2022/12/24 15:10:30;;;;;;;19.60;13.40;;;;;;;;;;5047493;28;20070;-81
2022/12/24 15:12:56;;;;;;;20.17;13.45;;;;;;;;;;5041232;28;20025;-81
2022/12/24 15:15:23;;;;;;;17.08;11.85;;;;;;;;;;5019594;28;20046;-80
2022/12/24 15:17:48;;;;;;;20.45;13.32;;;;;;;;;;5021335;28;20040;-79
2022/12/24 15:20:15;;;;;;;19.98;13.20;;;;;;;;;;5002010;28;20536;-80
2022/12/24 15:22:42;;;;;;;19.50;13.30;;;;;;;;;;5014603;28;20535;-80
2022/12/24 15:25:40;;;;;;;19.67;13.05;;;;;;;;;;5017831;28;20051;-80
2022/12/24 15:31:15;;;;;;;17.27;13.07;;;;;;;;;;5010083;28;20025;-78
2022/12/24 15:33:43;;;;;;;16.83;12.13;;;;;;;;;;5022690;28;20044;-79
2022/12/24 15:36:08;;;;;;;17.60;11.98;;;;;;;;;;5022265;28;20032;-80
2022/12/24 15:38:38;;;;;;;16.52;12.23;;;;;;;;;;5025347;28;20412;-80
2022/12/24 15:44:11;;;;;;;17.25;12.93;;;;;;;;;;5026275;28;20095;-80
2022/12/24 15:46:37;;;;;;;19.25;13.02;;;;;;;;;;5009625;28;20029;-79
2022/12/24 15:49:02;;;;;;;17.58;12.38;;;;;;;;;;5017897;28;20021;-80
2022/12/24 15:51:33;;;;;;;17.95;12.13;;;;;;;;;;4995862;28;20485;-79
2022/12/24 15:54:02;;;;;;;20.38;13.30;;;;;;;;;;5020312;28;20044;-79
2022/12/24 15:56:30;;;;;;;17.77;12.88;;;;;;;;;;5017469;28;20032;-79
2022/12/24 15:59:14;;;;;;;17.73;12.75;;;;;;;;;;5019122;28;20037;-79
2022/12/24 16:01:40;;;;;;;19.60;13.55;;;;;;;;;;5017552;28;20121;-80
2022/12/24 16:04:11;;;;;;;19.73;13.27;;;;;;;;;;4989088;28;20156;-80
2022/12/24 16:06:53;;;;;;;28.90;14.63;;;;;;;;;;5018816;28;20028;-79
2022/12/24 16:09:31;;;;;;;17.60;12.63;;;;;;;;;;5023741;28;20037;-80
2022/12/24 16:11:56;;;;;;;19.48;12.77;;;;;;;;;;5021568;28;20493;-81
2022/12/24 16:14:22;;;;;;;20.23;12.70;;;;;;;;;;5026781;28;20132;-80